Terminal Aerodrome Forecast
Issued by NWS

Home | Current Version | Previous Version | Text Only | Print | Product List | Glossary On
Versions: 1 2 3 4 5 6 7 8 9 10 11 12 13 14 15 16 17 18 19 20 21 22 23 24 25
088
FTUS43 KDLH 061129
TAFBRD
TAF
KBRD 061129Z 0612/0712 19006KT 5SM BR SCT020 BKN100
      TEMPO 0612/0615 5SM BR BKN015
     FM061800 19014KT P6SM SCT025 OVC080
     FM062200 20014KT P6SM SCT015 OVC040
      TEMPO 0622/0702 2SM -SN BKN012
     FM070200 22014KT P6SM VCSH OVC012
     FM071000 24014KT 6SM -SN OVC012=

USA.gov is the U.S. government's official web portal to all federal, state and local government web resources and services.